Ievoli Sprint — IBEO — position and weather

sailwx.info

Track history (hours):
 
Tides and Currents Weather Stations Pressure Air Temp Water Temp Dewpoint Dewpoint Depression Visibility Wind Speed Wind Dir Waves Ship Positions

Ievoli Sprint

Last reported at 2018-Feb-18 10:52 UTC. Time now 2018-Feb-19 15:38 UTC.
Position N 39°06' E 009°03'.

Length 100 m; draft 5.4 m.

Type: Ship. MMSI: 247086400.

Date/timePositionNaut miles runAvg speedWind from/ knotsBaromVisibWave heightAir tempDewpointWater temp
2018-Feb-18 10:52N 39°06' E 009°03'166 9.8
2018-Feb-17 17:54N 38°24' E 012°29'712.6
2018-Feb-17 17:21N 38°22' E 012°38'412.9
2018-Feb-17 17:00N 38°21' E 012°44'713.5
2018-Feb-17 16:30N 38°21' E 012°52'713.5
2018-Feb-17 16:00N 38°20' E 013°01'713.6
2018-Feb-17 15:31N 38°20' E 013°09'713.5
2018-Feb-17 15:01N 38°20' E 013°18'713.3
2018-Feb-17 14:30N 38°20' E 013°26'713.4
2018-Feb-17 14:01N 38°20' E 013°35'713.0
2018-Feb-17 13:30N 38°19' E 013°43'713.4
2018-Feb-17 13:00N 38°19' E 013°52'713.3
2018-Feb-17 12:30N 38°19' E 014°00'713.2
2018-Feb-17 12:00N 38°19' E 014°08'713.2
2018-Feb-17 11:30N 38°19' E 014°17'713.3
2018-Feb-17 10:57N 38°19' E 014°26'613.0
2018-Feb-17 10:29N 38°19' E 014°34'613.2
2018-Feb-17 10:00N 38°19' E 014°42'713.5
2018-Feb-17 09:30N 38°18' E 014°51'613.0
2018-Feb-17 09:00N 38°18' E 014°59'612.7
2018-Feb-17 08:30N 38°20' E 015°07'612.9
2018-Feb-17 08:00N 38°21' E 015°15'713.3
2018-Feb-17 07:27N 38°21' E 015°24'613.4
2018-Feb-17 07:00N 38°21' E 015°32'612.7
2018-Feb-17 06:30N 38°19' E 015°40'4 8.9
2018-Feb-17 06:00N 38°15' E 015°39'713.3
2018-Feb-17 05:29N 38°08' E 015°36'612.7
2018-Feb-17 05:00N 38°02' E 015°35'611.6
2018-Feb-17 04:29N 37°56' E 015°37'713.5
2018-Feb-17 03:58N 37°51' E 015°43'613.1
2018-Feb-17 03:30N 37°51' E 015°50'17113.1
2018-Feb-16 14:27N 39°50' E 018°29'614.3
2018-Feb-16 14:00N 39°55' E 018°32'  
2018-Feb-13 06:43N 44°30' E 012°21'5 2.6
2018-Feb-13 04:53N 44°30' E 012°27'0 0.0
2018-Feb-13 02:53N 44°30' E 012°27'38410.2
2018-Feb-11 13:17N 39°58' E 018°34'412.4
2018-Feb-11 13:00N 39°55' E 018°32'174 8.2
2018-Feb-10 15:46N 37°50' E 015°57'411.8
2018-Feb-10 15:26N 37°47' E 015°53'810.4
2018-Feb-10 14:37N 37°42' E 015°45'1 9.8
2018-Feb-10 14:30N 37°41' E 015°44'5 9.7
2018-Feb-10 14:00N 37°37' E 015°40'510.3
2018-Feb-10 13:30N 37°33' E 015°36'510.3
2018-Feb-10 13:01N 37°30' E 015°32'510.1
2018-Feb-10 12:31N 37°26' E 015°28'5 9.2
2018-Feb-10 11:55N 37°21' E 015°24'  
Track history (hours):
 
Tides and Currents Weather Stations Pressure Air Temp Water Temp Dewpoint Dewpoint Depression Visibility Wind Speed Wind Dir Waves Ship Positions

Ievoli Sprint

Last reported at 2018-Feb-18 10:52 UTC. Time now 2018-Feb-19 15:38 UTC.
Position N 39°06' E 009°03'.

Length 100 m; draft 5.4 m.

Type: Ship. MMSI: 247086400.

Date/timePositionNaut miles runAvg speedWind from/ knotsBaromVisibWave heightAir tempDewpointWater temp
2018-Feb-18 10:52N 39°06' E 009°03'166 9.8
2018-Feb-17 17:54N 38°24' E 012°29'712.6
2018-Feb-17 17:21N 38°22' E 012°38'412.9
2018-Feb-17 17:00N 38°21' E 012°44'713.5
2018-Feb-17 16:30N 38°21' E 012°52'713.5
2018-Feb-17 16:00N 38°20' E 013°01'713.6
2018-Feb-17 15:31N 38°20' E 013°09'713.5
2018-Feb-17 15:01N 38°20' E 013°18'713.3
2018-Feb-17 14:30N 38°20' E 013°26'713.4
2018-Feb-17 14:01N 38°20' E 013°35'713.0
2018-Feb-17 13:30N 38°19' E 013°43'713.4
2018-Feb-17 13:00N 38°19' E 013°52'713.3
2018-Feb-17 12:30N 38°19' E 014°00'713.2
2018-Feb-17 12:00N 38°19' E 014°08'713.2
2018-Feb-17 11:30N 38°19' E 014°17'713.3
2018-Feb-17 10:57N 38°19' E 014°26'613.0
2018-Feb-17 10:29N 38°19' E 014°34'613.2
2018-Feb-17 10:00N 38°19' E 014°42'713.5
2018-Feb-17 09:30N 38°18' E 014°51'613.0
2018-Feb-17 09:00N 38°18' E 014°59'612.7
2018-Feb-17 08:30N 38°20' E 015°07'612.9
2018-Feb-17 08:00N 38°21' E 015°15'713.3
2018-Feb-17 07:27N 38°21' E 015°24'613.4
2018-Feb-17 07:00N 38°21' E 015°32'612.7
2018-Feb-17 06:30N 38°19' E 015°40'4 8.9
2018-Feb-17 06:00N 38°15' E 015°39'713.3
2018-Feb-17 05:29N 38°08' E 015°36'612.7
2018-Feb-17 05:00N 38°02' E 015°35'611.6
2018-Feb-17 04:29N 37°56' E 015°37'713.5
2018-Feb-17 03:58N 37°51' E 015°43'613.1
2018-Feb-17 03:30N 37°51' E 015°50'17113.1
2018-Feb-16 14:27N 39°50' E 018°29'614.3
2018-Feb-16 14:00N 39°55' E 018°32'  
2018-Feb-13 06:43N 44°30' E 012°21'5 2.6
2018-Feb-13 04:53N 44°30' E 012°27'0 0.0
2018-Feb-13 02:53N 44°30' E 012°27'38410.2
2018-Feb-11 13:17N 39°58' E 018°34'412.4
2018-Feb-11 13:00N 39°55' E 018°32'174 8.2
2018-Feb-10 15:46N 37°50' E 015°57'411.8
2018-Feb-10 15:26N 37°47' E 015°53'810.4
2018-Feb-10 14:37N 37°42' E 015°45'1 9.8
2018-Feb-10 14:30N 37°41' E 015°44'5 9.7
2018-Feb-10 14:00N 37°37' E 015°40'510.3
2018-Feb-10 13:30N 37°33' E 015°36'510.3
2018-Feb-10 13:01N 37°30' E 015°32'510.1
2018-Feb-10 12:31N 37°26' E 015°28'5 9.2
2018-Feb-10 11:55N 37°21' E 015°24'  

Dump ship's entire track history